Time;durP1;ratioP1;P1;durP2;ratioP2;P2;SDS_P1;SDS_P2;PMS_P1;PMS_P2;Temp;Humidity;BMP_temperature;BMP_pressure;BME280_temperature;BME280_humidity;BME280_pressure;Samples;Min_cycle;Max_cycle;Signal;HPM_P1;HPM_P2
2021/11/21 00:01:03;;;;;;;;;32.00;26.50;;;;;10.85;69.75;101506.38;5058295;28;45432;-76
2021/11/21 00:03:28;;;;;;;;;33.50;26.75;;;;;10.86;69.47;101497.59;5053865;28;45341;-76
2021/11/21 00:05:54;;;;;;;;;28.25;25.00;;;;;10.87;69.46;101499.41;5058665;28;56038;-77
2021/11/21 00:08:19;;;;;;;;;29.25;22.25;;;;;10.88;69.63;101495.00;5040563;28;45999;-77
2021/11/21 00:10:45;;;;;;;;;30.00;26.25;;;;;10.87;69.61;101490.59;5057808;28;63940;-76
2021/11/21 00:13:11;;;;;;;;;34.00;28.75;;;;;10.86;69.75;101476.47;5058310;28;46052;-77
2021/11/21 00:15:39;;;;;;;;;30.50;26.25;;;;;10.90;69.52;101475.66;5058497;28;45393;-77
2021/11/21 00:18:05;;;;;;;;;30.25;24.00;;;;;10.92;69.58;101473.97;5058342;28;47064;-77
2021/11/21 00:20:31;;;;;;;;;30.00;26.25;;;;;10.93;69.74;101461.66;5057380;28;45402;-76
2021/11/21 00:22:56;;;;;;;;;39.25;29.75;;;;;10.95;69.60;101465.19;5057760;28;57551;-77
2021/11/21 00:25:21;;;;;;;;;32.75;29.00;;;;;10.97;69.59;101460.81;5069103;28;45341;-76
2021/11/21 00:27:47;;;;;;;;;28.75;23.25;;;;;10.97;69.72;101461.75;5057217;28;46409;-76
2021/11/21 00:30:15;;;;;;;;;26.75;24.75;;;;;10.93;69.34;101461.66;5039292;28;59033;-76
2021/11/21 00:32:43;;;;;;;;;32.75;25.75;;;;;10.96;69.60;101454.66;5058005;28;45599;-76
2021/11/21 00:35:11;;;;;;;;;29.25;24.50;;;;;10.98;69.43;101450.31;5058377;28;45493;-77
2021/11/21 00:37:39;;;;;;;;;27.50;23.50;;;;;10.96;69.71;101456.41;5057903;28;46638;-77
2021/11/21 00:40:08;;;;;;;;;26.75;23.25;;;;;10.98;69.53;101460.88;5077246;28;45333;-77
2021/11/21 00:42:37;;;;;;;;;27.50;22.25;;;;;11.00;69.38;101459.13;5040527;28;45432;-76
2021/11/21 00:45:03;;;;;;;;;26.75;20.50;;;;;11.00;69.01;101456.50;5072337;28;45168;-77
2021/11/21 00:47:29;;;;;;;;;31.75;24.50;;;;;10.98;69.32;101438.84;5058161;28;46672;-76
2021/11/21 00:49:57;;;;;;;;;32.00;22.75;;;;;10.98;69.44;101447.66;5057401;28;58297;-77
2021/11/21 00:52:25;;;;;;;;;37.25;25.75;;;;;11.00;69.32;101450.31;5058115;28;45555;-76
2021/11/21 00:54:57;;;;;;;;;37.75;28.50;;;;;10.99;69.29;101444.16;5057755;28;45488;-76
2021/11/21 00:57:23;;;;;;;;;29.50;21.25;;;;;10.95;69.48;101441.41;5077602;28;46339;-75
2021/11/21 00:59:48;;;;;;;;;27.00;22.75;;;;;10.96;69.43;101445.84;5060532;28;45247;-76
2021/11/21 01:02:18;;;;;;;;;37.00;26.00;;;;;10.92;69.34;101434.34;5058161;28;45932;-76
2021/11/21 01:04:43;;;;;;;;;33.00;24.25;;;;;10.92;69.26;101430.78;5007284;28;45438;-77
2021/11/21 01:07:10;;;;;;;;;33.75;28.50;;;;;10.96;69.44;101436.16;5057556;28;47502;-77
2021/11/21 01:09:35;;;;;;;;;39.50;27.75;;;;;10.97;69.37;101437.03;5057605;28;45497;-77
2021/11/21 01:12:01;;;;;;;;;32.25;24.25;;;;;10.90;69.09;101427.22;5057578;28;45849;-76
2021/11/21 01:14:27;;;;;;;;;34.50;29.75;;;;;10.75;69.16;101412.84;5039426;28;45570;-76
2021/11/21 01:16:53;;;;;;;;;32.75;24.25;;;;;10.85;69.43;101428.88;5057112;28;46055;-76
2021/11/21 01:19:18;;;;;;;;;35.00;27.75;;;;;10.87;69.19;101432.47;5056721;28;64034;-76
2021/11/21 01:21:47;;;;;;;;;42.75;28.50;;;;;10.87;69.24;101433.34;5056966;28;52288;-77
2021/11/21 01:24:12;;;;;;;;;35.75;25.75;;;;;10.84;69.14;101432.41;5057328;28;45600;-76
2021/11/21 01:26:38;;;;;;;;;28.00;26.75;;;;;10.78;69.17;101433.16;5057245;28;46293;-76
2021/11/21 01:29:03;;;;;;;;;38.00;25.25;;;;;10.77;69.06;101430.50;5057289;28;45400;-77
2021/11/21 01:31:29;;;;;;;;;38.50;30.50;;;;;10.73;69.26;101435.72;5057924;28;45354;-76
2021/11/21 01:33:54;;;;;;;;;35.50;27.00;;;;;10.65;69.19;101424.13;5066878;28;45474;-77
2021/11/21 01:36:20;;;;;;;;;31.75;25.00;;;;;10.64;69.41;101432.00;5062913;28;47273;-77
2021/11/21 01:38:48;;;;;;;;;31.75;26.50;;;;;10.64;69.41;101427.59;5057491;28;61859;-77
2021/11/21 01:41:16;;;;;;;;;29.75;25.25;;;;;10.55;69.32;101410.69;5059419;28;45377;-76
2021/11/21 01:43:44;;;;;;;;;33.50;25.00;;;;;10.65;69.42;101429.41;5076045;28;45553;-76
2021/11/21 01:46:10;;;;;;;;;28.25;22.00;;;;;10.59;69.28;101423.09;5056906;28;46592;-76
2021/11/21 01:48:36;;;;;;;;;30.75;22.50;;;;;10.59;69.39;101425.72;5038951;28;45461;-76
2021/11/21 01:51:09;;;;;;;;;29.75;26.75;;;;;10.59;69.64;101420.44;5057290;28;45312;-76
2021/11/21 01:53:37;;;;;;;;;26.00;20.75;;;;;10.58;69.61;101426.59;5057046;28;45393;-76
2021/11/21 01:56:04;;;;;;;;;32.50;24.25;;;;;10.55;69.80;101423.91;5056699;28;46498;-76
2021/11/21 01:58:29;;;;;;;;;32.00;23.00;;;;;10.54;69.69;101406.25;5039031;28;45274;-76
2021/11/21 02:00:57;;;;;;;;;31.25;27.75;;;;;10.63;69.67;101414.38;5069831;28;49420;-77
2021/11/21 02:03:22;;;;;;;;;31.00;21.50;;;;;10.64;69.71;101419.69;5057040;28;45369;-76
2021/11/21 02:05:48;;;;;;;;;30.00;24.25;;;;;10.63;69.85;101409.97;5056680;28;47549;-77
2021/11/21 02:08:13;;;;;;;;;31.75;25.50;;;;;10.63;69.71;101415.25;5056901;28;45287;-76
2021/11/21 02:10:38;;;;;;;;;23.00;17.50;;;;;10.63;69.63;101412.63;5056372;28;60902;-76
2021/11/21 02:13:05;;;;;;;;;34.75;25.50;;;;;10.58;69.45;101398.44;5069969;28;45278;-76
2021/11/21 02:15:30;;;;;;;;;33.25;25.25;;;;;10.55;69.55;101395.75;5068493;28;47223;-76
2021/11/21 02:17:56;;;;;;;;;24.25;21.75;;;;;10.54;69.39;101393.06;5057955;28;45360;-76
2021/11/21 02:20:43;;;;;;;;;27.25;24.75;;;;;10.58;69.46;101392.25;5056890;28;45463;-76
2021/11/21 02:23:09;;;;;;;;;29.50;22.00;;;;;10.55;69.58;101393.09;5055936;28;45172;-77
2021/11/21 02:25:35;;;;;;;;;31.50;21.75;;;;;10.54;69.52;101380.75;5038507;28;46134;-76
2021/11/21 02:28:00;;;;;;;;;31.50;25.00;;;;;10.56;69.59;101383.44;5056243;28;45276;-77
2021/11/21 02:30:26;;;;;;;;;29.25;25.00;;;;;10.49;69.38;101366.56;5056668;28;50847;-77
2021/11/21 02:32:52;;;;;;;;;27.50;23.50;;;;;10.59;69.35;101384.38;5062633;28;50198;-76
2021/11/21 02:35:17;;;;;;;;;27.75;21.75;;;;;10.55;69.26;101379.91;5062467;28;47339;-76
2021/11/21 02:37:43;;;;;;;;;28.00;21.50;;;;;10.56;69.18;101384.31;5056014;28;60045;-77
2021/11/21 02:40:09;;;;;;;;;34.75;25.50;;;;;10.58;69.28;101373.78;5056489;28;45548;-76
2021/11/21 02:42:35;;;;;;;;;34.50;27.75;;;;;10.57;69.31;101382.56;5056798;28;45343;-76
2021/11/21 02:45:01;;;;;;;;;28.50;22.25;;;;;10.57;69.45;101372.00;5055542;28;65638;-76
2021/11/21 02:47:32;;;;;;;;;30.00;23.50;;;;;10.58;69.23;101374.66;5056607;28;45370;-76
2021/11/21 02:49:58;;;;;;;;;30.25;24.00;;;;;10.59;69.42;101365.88;5056419;28;45319;-77
2021/11/21 02:52:23;;;;;;;;;37.50;29.00;;;;;10.57;69.18;101359.69;5058671;28;45562;-77
2021/11/21 02:54:51;;;;;;;;;35.00;23.75;;;;;10.55;69.04;101361.41;5059489;28;47560;-77
2021/11/21 02:57:16;;;;;;;;;29.00;23.00;;;;;10.58;69.31;101364.09;5059777;28;45570;-77
2021/11/21 02:59:41;;;;;;;;;36.75;25.50;;;;;10.52;69.20;101352.53;5059051;28;60277;-76
2021/11/21 03:02:07;;;;;;;;;28.25;25.00;;;;;10.56;69.29;101360.56;5071438;28;57572;-76
2021/11/21 03:04:32;;;;;;;;;34.25;28.00;;;;;10.57;69.09;101353.53;5044724;28;60249;-77
2021/11/21 03:06:57;;;;;;;;;29.50;22.75;;;;;10.59;69.10;101338.59;5073376;28;45355;-76
2021/11/21 03:09:23;;;;;;;;;35.00;28.50;;;;;10.57;69.15;101342.97;5065691;28;55480;-77
2021/11/21 03:11:49;;;;;;;;;33.25;25.75;;;;;10.52;69.03;101324.38;5041829;28;45340;-76
2021/11/21 03:14:15;;;;;;;;;37.25;27.75;;;;;10.57;69.18;101330.66;5024654;28;46469;-76
2021/11/21 03:16:40;;;;;;;;;31.75;28.25;;;;;10.55;69.15;101324.47;5059706;28;45258;-76
2021/11/21 03:19:05;;;;;;;;;32.50;22.50;;;;;10.56;69.17;101327.97;5059758;28;45468;-76
2021/11/21 03:21:31;;;;;;;;;35.00;27.00;;;;;10.52;69.28;101311.19;5058974;28;54286;-76
2021/11/21 03:23:56;;;;;;;;;37.00;29.50;;;;;10.55;69.27;101324.47;5058796;28;59213;-77
2021/11/21 03:26:21;;;;;;;;;40.00;29.25;;;;;10.55;69.26;101318.28;5058372;28;65242;-77
2021/11/21 03:28:47;;;;;;;;;34.50;26.25;;;;;10.52;69.17;101327.03;5059492;28;45192;-76
2021/11/21 03:31:12;;;;;;;;;38.00;29.00;;;;;10.43;69.25;101317.16;5058628;28;57879;-76
2021/11/21 03:33:39;;;;;;;;;38.50;28.50;;;;;10.37;69.42;101313.53;5058987;28;50962;-77
2021/11/21 03:36:04;;;;;;;;;38.75;25.50;;;;;10.34;69.43;101316.13;5059146;28;45336;-76
2021/11/21 03:38:30;;;;;;;;;34.25;29.00;;;;;10.31;69.25;101306.38;5059205;28;45374;-77
2021/11/21 03:40:55;;;;;;;;;40.50;24.50;;;;;10.28;69.71;101301.06;5059279;28;45483;-76
2021/11/21 03:43:20;;;;;;;;;45.25;33.00;;;;;10.27;69.46;101301.88;5058984;28;47478;-77
2021/11/21 03:45:46;;;;;;;;;40.00;24.50;;;;;10.30;69.86;101304.59;5058637;28;57988;-76
2021/11/21 03:48:11;;;;;;;;;40.00;34.25;;;;;10.27;69.70;101301.88;5058558;28;48583;-77
2021/11/21 03:50:37;;;;;;;;;40.75;31.00;;;;;10.27;69.90;101308.91;5058846;28;45303;-76
2021/11/21 03:53:02;;;;;;;;;43.25;30.75;;;;;10.24;69.92;101301.84;5059694;28;63206;-77
2021/11/21 03:55:27;;;;;;;;;47.75;30.50;;;;;10.21;69.83;101307.91;5059039;28;45418;-77
2021/11/21 03:57:53;;;;;;;;;36.25;30.75;;;;;10.22;69.97;101303.50;5058300;28;59754;-76
2021/11/21 04:00:20;;;;;;;;;42.75;27.00;;;;;10.20;70.01;101306.13;5059103;28;45319;-76
2021/11/21 04:02:46;;;;;;;;;49.00;35.00;;;;;10.14;69.93;101306.00;5057549;28;46437;-77
2021/11/21 04:05:12;;;;;;;;;40.50;27.75;;;;;10.14;70.17;101306.00;5058482;28;45298;-77
2021/11/21 04:07:37;;;;;;;;;40.50;32.00;;;;;10.12;70.18;101296.25;5058372;28;45826;-76
2021/11/21 04:10:03;;;;;;;;;41.50;30.00;;;;;10.18;70.19;101299.06;5067488;28;45547;-76
2021/11/21 04:12:29;;;;;;;;;35.75;25.75;;;;;10.14;70.03;101300.72;5063110;28;46697;-77
2021/11/21 04:14:54;;;;;;;;;38.75;32.75;;;;;10.10;70.20;101300.63;5058756;28;45340;-76
2021/11/21 04:17:20;;;;;;;;;40.75;32.50;;;;;10.11;70.15;101283.94;5058568;28;45330;-77
2021/11/21 04:19:45;;;;;;;;;33.00;27.00;;;;;10.11;70.08;101287.47;5058103;28;58620;-76
2021/11/21 04:22:10;;;;;;;;;32.25;26.25;;;;;10.17;70.20;101284.06;5058157;28;45914;-77
2021/11/21 04:24:36;;;;;;;;;34.25;27.75;;;;;10.11;70.01;101269.00;5058477;28;45373;-76
2021/11/21 04:27:02;;;;;;;;;42.00;30.25;;;;;10.16;70.34;101282.28;5058122;28;45492;-77
2021/11/21 04:29:27;;;;;;;;;39.50;26.75;;;;;10.21;69.95;101284.16;5057807;28;45544;-77
2021/11/21 04:31:54;;;;;;;;;37.75;27.25;;;;;10.23;70.23;101271.94;5058717;28;46537;-76
2021/11/21 04:34:19;;;;;;;;;38.75;29.75;;;;;10.22;70.28;101266.56;5058125;28;45382;-76
2021/11/21 04:36:45;;;;;;;;;48.50;29.00;;;;;10.20;70.17;101268.31;5058394;28;45465;-77
2021/11/21 04:39:10;;;;;;;;;34.50;26.75;;;;;10.18;70.31;101272.66;5057890;28;55367;-77
2021/11/21 04:41:35;;;;;;;;;26.00;25.50;;;;;10.15;70.40;101262.94;5061807;28;67955;-77
2021/11/21 04:44:02;;;;;;;;;33.75;24.00;;;;;10.14;70.51;101257.63;5066207;28;54439;-77
2021/11/21 04:46:28;;;;;;;;;37.00;29.25;;;;;10.08;70.40;101249.59;5058259;28;45223;-76
2021/11/21 04:48:53;;;;;;;;;37.25;29.75;;;;;10.11;70.16;101247.00;5058328;28;45207;-77
2021/11/21 04:51:19;;;;;;;;;37.75;27.75;;;;;10.12;70.58;101248.78;5057391;28;61293;-77
2021/11/21 04:53:44;;;;;;;;;29.50;27.75;;;;;10.16;70.30;101245.34;5057179;28;57421;-76
2021/11/21 04:56:10;;;;;;;;;35.00;29.00;;;;;10.16;70.43;101246.22;5070871;28;45582;-76
2021/11/21 04:58:35;;;;;;;;;35.25;23.00;;;;;10.18;70.42;101251.56;5057835;28;45429;-76
2021/11/21 05:01:00;;;;;;;;;39.00;27.25;;;;;10.19;70.16;101255.97;5057636;28;46539;-76
2021/11/21 05:03:26;;;;;;;;;26.75;22.25;;;;;10.18;70.55;101243.66;5067102;28;45352;-77
2021/11/21 05:05:51;;;;;;;;;38.50;30.75;;;;;10.15;70.72;101239.19;5061362;28;45349;-76
2021/11/21 05:08:17;;;;;;;;;33.25;27.50;;;;;10.09;70.70;101227.63;5057690;28;45777;-76
2021/11/21 05:10:42;;;;;;;;;32.25;24.25;;;;;10.17;70.50;101233.91;5057220;28;56810;-76
2021/11/21 05:13:07;;;;;;;;;30.25;25.00;;;;;10.19;70.83;101238.38;5057223;28;59074;-76
2021/11/21 05:15:33;;;;;;;;;46.75;28.50;;;;;10.22;70.64;101229.63;5158322;22;51474;-77
2021/11/21 05:17:58;;;;;;;;;24.25;22.25;;;;;10.23;70.52;101223.50;5023011;28;45474;-77
2021/11/21 05:20:25;;;;;;;;;36.75;26.25;;;;;10.23;70.50;101219.16;5031708;28;46825;-76
2021/11/21 05:22:50;;;;;;;;;35.75;26.75;;;;;10.23;70.68;101221.78;5037986;28;63939;-77
2021/11/21 05:25:15;;;;;;;;;34.25;29.00;;;;;10.19;70.53;101206.72;5017177;28;53786;-77
2021/11/21 05:27:43;;;;;;;;;44.50;31.00;;;;;10.20;70.79;101211.13;5020295;28;46513;-76
2021/11/21 05:30:09;;;;;;;;;43.75;24.25;;;;;10.27;70.40;101217.44;5026362;28;47478;-76
2021/11/21 05:32:34;;;;;;;;;33.75;23.50;;;;;10.29;70.62;101218.38;5023293;28;45289;-76
2021/11/21 05:34:59;;;;;;;;;33.75;26.75;;;;;10.29;70.71;101210.47;5015521;28;61116;-76
2021/11/21 05:37:25;;;;;;;;;35.50;22.00;;;;;10.32;70.40;101207.84;5017559;28;45306;-76
2021/11/21 05:39:50;;;;;;;;;29.25;22.75;;;;;10.27;70.46;101195.44;5016970;28;47309;-76
2021/11/21 05:42:16;;;;;;;;;35.50;25.25;;;;;10.31;70.66;101207.84;5016651;28;63211;-76
2021/11/21 05:44:41;;;;;;;;;27.75;21.00;;;;;10.34;70.85;101213.19;5017307;28;45210;-76
2021/11/21 05:47:06;;;;;;;;;27.50;21.00;;;;;10.33;70.48;101217.53;5017060;28;45674;-76
2021/11/21 05:49:32;;;;;;;;;39.75;29.75;;;;;10.34;70.58;101219.34;5023212;28;46812;-76
2021/11/21 05:51:57;;;;;;;;;32.25;26.50;;;;;10.32;70.69;101218.41;5033813;28;60659;-77
2021/11/21 05:54:22;;;;;;;;;33.25;27.00;;;;;10.31;70.71;101214.00;5024078;28;45651;-76
2021/11/21 05:56:48;;;;;;;;;31.75;20.25;;;;;10.32;70.51;101210.50;5016631;28;57540;-76
2021/11/21 05:59:13;;;;;;;;;40.25;24.25;;;;;10.32;70.54;101212.25;5016197;28;63833;-77
2021/11/21 06:01:39;;;;;;;;;37.00;22.75;;;;;10.27;70.38;101190.16;5017128;28;45318;-76
2021/11/21 06:04:05;;;;;;;;;27.75;22.00;;;;;10.24;70.46;101185.72;5027096;28;46165;-77
2021/11/21 06:06:31;;;;;;;;;28.50;20.75;;;;;10.28;70.58;101195.50;5036868;28;45318;-76
2021/11/21 06:08:56;;;;;;;;;29.75;24.75;;;;;10.29;70.94;101191.97;5032802;28;53682;-76
2021/11/21 06:11:22;;;;;;;;;30.00;28.50;;;;;10.31;70.87;101198.16;5017233;28;45241;-76
2021/11/21 06:13:47;;;;;;;;;22.00;17.00;;;;;10.32;70.74;101189.38;5016940;28;45440;-76
2021/11/21 06:16:13;;;;;;;;;31.75;24.00;;;;;10.33;70.57;101180.59;5018017;28;58679;-77
2021/11/21 06:18:38;;;;;;;;;33.25;23.75;;;;;10.36;70.65;101191.22;5018005;28;55886;-77
2021/11/21 06:21:03;;;;;;;;;26.50;22.00;;;;;10.39;70.57;101177.19;5023174;28;61158;-76
2021/11/21 06:23:33;;;;;;;;;23.00;19.50;;;;;10.34;70.38;101170.94;5039581;28;59247;-77
2021/11/21 06:25:59;;;;;;;;;26.75;21.50;;;;;10.36;70.75;101175.38;5021154;28;45391;-77
2021/11/21 06:28:25;;;;;;;;;35.75;24.50;;;;;10.37;70.57;101178.91;5020067;28;45992;-76
2021/11/21 06:30:51;;;;;;;;;34.25;25.00;;;;;10.34;70.64;101182.41;5020123;28;45324;-77
2021/11/21 06:33:17;;;;;;;;;30.00;25.25;;;;;10.33;70.80;101190.25;5003282;28;45478;-76
2021/11/21 06:35:43;;;;;;;;;36.00;24.50;;;;;10.27;70.39;101182.25;5010901;28;45531;-76
2021/11/21 06:38:08;;;;;;;;;28.50;21.50;;;;;10.29;70.90;101191.09;5014594;28;45583;-76
2021/11/21 06:40:33;;;;;;;;;31.75;26.00;;;;;10.28;70.87;101181.38;5019483;28;58349;-77
2021/11/21 06:42:59;;;;;;;;;27.50;21.00;;;;;10.30;70.98;101179.66;5020010;28;45383;-77
2021/11/21 06:45:24;;;;;;;;;30.25;21.75;;;;;10.32;70.76;101184.09;5019654;28;57421;-77
2021/11/21 06:47:50;;;;;;;;;28.00;23.25;;;;;10.32;70.89;101185.84;5019635;28;46288;-77
2021/11/21 06:50:16;;;;;;;;;32.50;24.00;;;;;10.34;70.90;101187.66;5034091;28;45341;-77
2021/11/21 06:52:42;;;;;;;;;36.25;27.25;;;;;10.37;70.78;101178.91;5025050;28;45161;-77
2021/11/21 06:55:09;;;;;;;;;22.25;19.00;;;;;10.34;70.62;101178.88;5026048;28;45332;-76
2021/11/21 06:57:35;;;;;;;;;27.25;20.50;;;;;10.33;70.69;101170.03;5039933;28;46604;-77
2021/11/21 07:00:02;;;;;;;;;25.25;20.25;;;;;10.39;70.87;101174.56;5039670;28;45240;-77
2021/11/21 07:02:27;;;;;;;;;22.25;16.75;;;;;10.38;70.83;101184.19;5029281;28;45417;-77
2021/11/21 07:04:52;;;;;;;;;35.75;21.00;;;;;10.40;70.87;101176.34;5020579;28;57671;-76
2021/11/21 07:07:18;;;;;;;;;29.75;22.75;;;;;10.41;70.77;101183.38;5038837;28;63762;-76
2021/11/21 07:09:44;;;;;;;;;29.75;22.50;;;;;10.42;70.77;101180.75;5038568;28;57767;-76
2021/11/21 07:12:10;;;;;;;;;25.00;19.75;;;;;10.41;70.82;101173.72;5031963;28;45563;-76
2021/11/21 07:14:36;;;;;;;;;29.00;21.75;;;;;10.42;70.90;101170.19;5019686;28;45367;-76
2021/11/21 07:17:02;;;;;;;;;24.00;19.25;;;;;10.42;70.72;101180.75;5023595;28;46543;-76
2021/11/21 07:19:27;;;;;;;;;27.50;20.25;;;;;10.42;70.77;101186.03;5019369;28;45366;-76
2021/11/21 07:21:53;;;;;;;;;22.75;19.50;;;;;10.42;71.15;101180.75;5020830;28;45399;-76
2021/11/21 07:24:18;;;;;;;;;29.00;21.50;;;;;10.42;70.58;101167.56;5019562;28;51038;-76
2021/11/21 07:26:44;;;;;;;;;26.50;19.50;;;;;10.43;70.78;101160.53;5025023;28;46060;-76
2021/11/21 07:29:09;;;;;;;;;27.50;19.50;;;;;10.50;70.80;101165.06;5019328;28;45236;-76
2021/11/21 07:31:35;;;;;;;;;27.75;18.25;;;;;10.52;70.64;101168.59;5021080;28;45427;-76
2021/11/21 07:34:01;;;;;;;;;26.00;18.25;;;;;10.53;70.55;101164.22;5027676;28;54971;-76
2021/11/21 07:36:26;;;;;;;;;19.25;16.00;;;;;10.53;70.71;101161.56;5019049;28;45713;-76
2021/11/21 07:38:51;;;;;;;;;19.00;18.00;;;;;10.47;70.64;101147.41;5026548;28;45274;-76
2021/11/21 07:41:17;;;;;;;;;25.25;18.75;;;;;10.56;70.88;101170.44;5037902;28;60192;-76
2021/11/21 07:43:42;;;;;;;;;25.00;15.25;;;;;10.55;70.52;101165.16;5032557;28;45438;-76
2021/11/21 07:46:08;;;;;;;;;20.75;17.75;;;;;10.61;70.92;101173.16;5032136;28;60465;-76
2021/11/21 07:48:33;;;;;;;;;26.50;18.50;;;;;10.62;70.67;101172.28;5020561;28;60850;-76
2021/11/21 07:51:00;;;;;;;;;19.75;19.50;;;;;10.61;70.34;101158.22;5018245;28;57334;-79
2021/11/21 07:53:26;;;;;;;;;30.00;16.00;;;;;10.63;70.54;101164.38;5023577;28;45597;-78
2021/11/21 07:55:52;;;;;;;;;25.00;18.50;;;;;10.64;70.70;101157.34;5027772;28;46477;-78
2021/11/21 07:58:17;;;;;;;;;20.25;17.75;;;;;10.65;70.54;101169.69;5022471;28;45489;-79
2021/11/21 08:00:43;;;;;;;;;23.75;20.00;;;;;10.64;70.63;101171.44;5019476;28;45311;-79
2021/11/21 08:03:08;;;;;;;;;24.33;18.67;;;;;10.65;70.73;101162.69;5004208;28;45601;-78
2021/11/21 08:05:34;;;;;;;;;30.00;20.50;;;;;10.68;70.57;101164.47;5034739;28;62588;-79
2021/11/21 08:07:59;;;;;;;;;27.67;19.00;;;;;10.69;70.66;101147.75;5038418;28;45434;-78
2021/11/21 08:10:24;;;;;;;;;18.50;16.50;;;;;10.70;70.27;101147.75;5020593;28;45876;-78
2021/11/21 08:12:50;;;;;;;;;20.50;18.00;;;;;10.74;70.43;101152.22;5008503;28;51001;-78
2021/11/21 08:15:15;;;;;;;;;27.25;18.00;;;;;10.75;70.34;101163.69;5018918;28;46452;-79
2021/11/21 08:17:41;;;;;;;;;18.75;16.75;;;;;10.77;70.48;101159.34;5013653;28;45354;-78
2021/11/21 08:20:07;;;;;;;;;20.75;18.25;;;;;10.79;70.49;101154.06;5007412;28;45303;-78
2021/11/21 08:22:32;;;;;;;;;28.00;20.50;;;;;10.80;70.46;101158.47;5022144;28;45484;-78
2021/11/21 08:24:58;;;;;;;;;19.75;18.75;;;;;10.79;70.34;101160.22;5018118;28;46265;-78
2021/11/21 08:27:23;;;;;;;;;31.75;20.00;;;;;10.79;70.56;101157.59;5025799;28;45376;-78
2021/11/21 08:29:52;;;;;;;;;22.50;15.00;;;;;10.82;70.44;101154.13;5018551;28;45359;-78
2021/11/21 08:32:18;;;;;;;;;21.25;14.00;;;;;10.79;70.26;101146.13;5018880;28;45348;-78
2021/11/21 08:34:44;;;;;;;;;20.75;14.75;;;;;10.83;70.46;101167.34;5009826;28;45606;-79
2021/11/21 08:37:10;;;;;;;;;25.25;21.75;;;;;10.82;70.19;101154.13;5016511;28;45426;-78
2021/11/21 08:39:36;;;;;;;;;24.75;20.00;;;;;10.88;70.57;101163.03;5018070;28;45417;-80
2021/11/21 08:42:01;;;;;;;;;19.75;15.00;;;;;10.93;70.35;101156.06;5004270;28;45291;-77
2021/11/21 08:44:27;;;;;;;;;19.00;13.67;;;;;10.93;70.13;101161.34;5038154;28;45902;-78
2021/11/21 08:46:52;;;;;;;;;21.75;14.00;;;;;10.97;69.97;101164.91;5019850;28;45899;-76
2021/11/21 08:49:17;;;;;;;;;23.25;17.25;;;;;10.95;70.16;101161.34;5036831;28;45352;-78
2021/11/21 08:51:43;;;;;;;;;23.00;18.25;;;;;11.05;70.39;101172.94;5012148;28;45449;-77
2021/11/21 08:54:09;;;;;;;;;21.75;16.25;;;;;11.07;70.46;101171.19;5003167;28;45537;-78
2021/11/21 08:56:35;;;;;;;;;26.25;16.75;;;;;11.01;70.52;101149.13;5012682;28;45454;-77
2021/11/21 08:59:01;;;;;;;;;24.25;16.25;;;;;11.09;70.22;101143.94;5013058;28;54614;-77
2021/11/21 09:01:27;;;;;;;;;26.33;16.33;;;;;11.17;70.03;101160.78;5018044;28;45172;-76
2021/11/21 09:03:52;;;;;;;;;21.50;17.50;;;;;11.16;70.18;101145.81;5026668;28;46644;-77
2021/11/21 09:06:18;;;;;;;;;25.67;19.00;;;;;11.17;69.99;101136.13;5000928;28;50642;-77
2021/11/21 09:08:43;;;;;;;;;21.25;14.00;;;;;11.25;69.90;101152.97;5020938;28;53376;-77
2021/11/21 09:11:08;;;;;;;;;21.25;15.50;;;;;11.13;69.70;101147.50;5033880;28;46617;-75
2021/11/21 09:13:34;;;;;;;;;22.67;13.67;;;;;10.94;70.27;101133.16;5027599;28;49408;-75
2021/11/21 09:15:59;;;;;;;;;16.00;13.75;;;;;10.81;70.48;101140.00;5032923;28;45398;-75
2021/11/21 09:18:25;;;;;;;;;26.00;20.25;;;;;10.62;71.44;101136.22;5021885;28;46383;-75
2021/11/21 09:20:57;;;;;;;;;21.00;16.50;;;;;10.53;71.39;101135.16;5032080;28;45579;-75
2021/11/21 09:23:23;;;;;;;;;18.25;15.50;;;;;10.58;71.11;101149.34;5034544;28;46453;-75
2021/11/21 09:25:49;;;;;;;;;19.75;18.00;;;;;10.57;71.27;101145.81;5021484;28;45501;-75
2021/11/21 09:28:14;;;;;;;;;23.00;19.75;;;;;10.53;71.62;101158.94;5028679;28;45561;-74
2021/11/21 09:30:39;;;;;;;;;24.00;18.50;;;;;10.50;71.77;101154.50;5016930;28;45473;-74
2021/11/21 09:33:05;;;;;;;;;21.00;18.25;;;;;10.47;71.72;101150.03;5020979;28;46168;-75
2021/11/21 09:35:31;;;;;;;;;20.75;15.75;;;;;10.47;71.54;101147.41;5020489;28;61945;-74
2021/11/21 09:37:56;;;;;;;;;26.00;21.00;;;;;10.54;71.90;101164.22;5025315;28;45442;-73
2021/11/21 09:40:21;;;;;;;;;24.75;19.75;;;;;10.56;71.51;101162.53;5030593;28;45412;-78
2021/11/21 09:42:47;;;;;;;;;26.00;19.00;;;;;10.59;71.40;101170.47;5023333;28;47733;-79
2021/11/21 09:45:13;;;;;;;;;23.25;17.25;;;;;10.66;71.25;101163.56;5025272;28;45403;-79
2021/11/21 09:47:38;;;;;;;;;26.00;20.00;;;;;10.74;71.54;101165.44;5014417;28;45339;-79
2021/11/21 09:50:08;;;;;;;;;24.00;20.00;;;;;10.82;71.66;101162.94;5004883;28;45581;-79
2021/11/21 09:52:34;;;;;;;;;22.25;16.25;;;;;10.94;71.19;101155.19;5002072;28;46507;-78
2021/11/21 09:54:59;;;;;;;;;24.25;18.00;;;;;11.02;71.22;101145.63;5020133;28;56478;-79
2021/11/21 09:57:25;;;;;;;;;27.00;21.75;;;;;11.22;71.00;101164.38;5018521;28;45467;-78
2021/11/21 10:00:00;;;;;;;;;31.00;21.50;;;;;11.38;70.73;101157.53;5026401;28;45518;-78
2021/11/21 10:02:30;;;;;;;;;27.75;21.50;;;;;11.50;70.38;101152.44;5025457;28;45755;-78
2021/11/21 10:04:56;;;;;;;;;21.75;19.50;;;;;11.55;70.36;101144.53;5020968;28;45666;-78
2021/11/21 10:07:25;;;;;;;;;36.25;25.50;;;;;11.67;70.29;101149.97;5016259;28;45541;-78
2021/11/21 10:09:51;;;;;;;;;23.25;20.50;;;;;11.69;70.01;101121.78;5024809;28;45457;-78
2021/11/21 10:12:17;;;;;;;;;24.25;22.50;;;;;11.78;69.73;101143.06;5026391;28;45662;-78
2021/11/21 10:14:59;;;;;;;;;22.25;19.50;;;;;11.76;69.58;101128.00;5012597;28;54884;-78
2021/11/21 10:17:26;;;;;;;;;22.00;18.00;;;;;11.76;69.03;101131.53;5019729;28;45461;-79
2021/11/21 10:20:06;;;;;;;;;24.33;21.00;;;;;11.73;69.43;101136.81;5035711;28;45461;-78
2021/11/21 10:23:05;;;;;;;;;25.25;22.75;;;;;11.73;69.55;101141.22;5030409;28;46669;-78
2021/11/21 10:25:33;;;;;;;;;26.50;21.00;;;;;11.72;69.62;101147.41;4976405;28;45361;-78
2021/11/21 10:28:12;;;;;;;;;28.75;23.75;;;;;11.73;69.58;101143.88;5017068;28;45609;-78
2021/11/21 10:31:12;;;;;;;;;29.00;23.75;;;;;11.69;69.83;101129.72;5030674;28;45553;-79
2021/11/21 10:33:42;;;;;;;;;33.00;22.25;;;;;11.72;69.68;101143.00;5033150;28;46479;-78
2021/11/21 10:36:16;;;;;;;;;25.25;23.25;;;;;11.70;69.78;101135.88;5029124;28;45516;-78
2021/11/21 10:38:49;;;;;;;;;27.75;21.75;;;;;11.66;69.78;101124.38;5025330;28;45577;-78
2021/11/21 10:41:35;;;;;;;;;29.25;24.00;;;;;11.72;69.83;101126.22;5013236;28;45367;-79
2021/11/21 10:44:11;;;;;;;;;30.25;23.25;;;;;11.75;69.80;101126.25;5016976;28;45946;-78
2021/11/21 10:46:38;;;;;;;;;31.25;20.75;;;;;11.78;69.71;101121.88;5000782;28;45352;-78
2021/11/21 10:49:15;;;;;;;;;30.50;28.50;;;;;11.76;69.88;101120.97;5029538;28;45354;-78
2021/11/21 10:51:41;;;;;;;;;27.75;22.00;;;;;11.74;69.70;101121.84;5031602;28;45549;-78
2021/11/21 10:54:37;;;;;;;;;29.00;24.00;;;;;11.72;69.68;101119.19;5000473;28;45513;-78
2021/11/21 10:57:08;;;;;;;;;23.50;21.50;;;;;11.72;70.16;101121.81;5002236;28;45379;-78
2021/11/21 10:59:42;;;;;;;;;25.25;21.25;;;;;11.78;69.94;101124.53;5001557;28;45312;-78
2021/11/21 11:02:09;;;;;;;;;27.75;20.50;;;;;11.85;69.91;101116.69;5017050;28;45849;-78
2021/11/21 11:04:34;;;;;;;;;32.50;24.00;;;;;11.87;69.72;101121.09;5012466;28;48200;-78
2021/11/21 11:07:15;;;;;;;;;24.25;23.00;;;;;11.89;69.72;101119.38;5023978;28;45284;-78